createdAt,value
2018-11-14T00:03:11.701Z,9.23
2018-11-14T00:07:17.005Z,9.57
2018-11-14T00:11:37.940Z,9.30
2018-11-14T00:15:41.930Z,10.97
2018-11-14T00:19:46.192Z,9.97
2018-11-14T00:23:50.436Z,8.10
2018-11-14T00:27:54.939Z,8.13
2018-11-14T00:31:59.016Z,7.33
2018-11-14T00:36:03.318Z,8.40
2018-11-14T00:40:09.665Z,7.87
2018-11-14T00:44:14.005Z,8.40
2018-11-14T00:48:18.144Z,8.58
2018-11-14T00:52:22.648Z,8.70
2018-11-14T00:56:26.636Z,7.30
2018-11-14T01:00:30.720Z,9.33
2018-11-14T01:04:35.147Z,8.23
2018-11-14T01:08:39.511Z,9.13
2018-11-14T01:12:44.924Z,7.43
2018-11-14T01:16:49.689Z,8.00
2018-11-14T01:20:53.870Z,7.63
2018-11-14T01:24:58.520Z,9.47
2018-11-14T01:29:03.054Z,9.30
2018-11-14T01:33:07.451Z,8.70
2018-11-14T01:37:11.995Z,7.47
2018-11-14T01:41:16.169Z,8.90
2018-11-14T01:45:20.721Z,8.07
2018-11-14T01:49:25.122Z,8.20
2018-11-14T01:53:29.272Z,8.13
2018-11-14T01:57:33.483Z,7.20
2018-11-14T02:01:37.773Z,7.30
2018-11-14T02:05:42.188Z,9.60
2018-11-14T02:09:46.773Z,11.07
2018-11-14T02:13:50.982Z,8.98
2018-11-14T02:17:55.252Z,9.27
2018-11-14T02:21:59.638Z,11.53
2018-11-14T02:26:03.918Z,9.30
2018-11-14T02:30:10.496Z,8.63
2018-11-14T02:34:14.612Z,9.10
2018-11-14T02:38:19.318Z,9.20
2018-11-14T02:42:23.901Z,8.50
2018-11-14T02:46:28.630Z,9.07
2018-11-14T02:50:32.850Z,9.73
2018-11-14T02:54:37.267Z,8.33
2018-11-14T02:58:41.571Z,7.73
2018-11-14T03:02:45.964Z,8.67
2018-11-14T03:06:50.127Z,10.70
2018-11-14T03:10:54.442Z,8.28
2018-11-14T03:14:58.844Z,9.87
2018-11-14T03:19:02.976Z,7.27
2018-11-14T03:23:07.404Z,6.80
2018-11-14T03:27:12.103Z,7.58
2018-11-14T03:31:16.482Z,10.58
2018-11-14T03:35:20.772Z,9.27
2018-11-14T03:39:25.140Z,9.17
2018-11-14T03:43:29.329Z,9.08
2018-11-14T03:47:33.708Z,12.20
2018-11-14T03:51:38.090Z,11.97
2018-11-14T03:55:42.390Z,7.83
2018-11-14T03:59:46.703Z,7.73
2018-11-14T04:03:51.741Z,8.78
2018-11-14T04:07:56.073Z,8.13
2018-11-14T04:12:00.302Z,8.30
2018-11-14T04:16:05.791Z,8.80
2018-11-14T04:20:12.285Z,7.60
2018-11-14T04:24:16.859Z,7.17
2018-11-14T04:28:20.965Z,8.87
2018-11-14T04:32:25.805Z,7.47
2018-11-14T04:36:29.993Z,8.57
2018-11-14T04:40:34.295Z,7.67
2018-11-14T04:44:38.406Z,6.60
2018-11-14T04:48:42.933Z,8.30
2018-11-14T04:52:48.040Z,8.05
2018-11-14T04:56:52.231Z,7.33
2018-11-14T05:00:56.377Z,8.30
2018-11-14T05:05:00.556Z,8.90
2018-11-14T05:09:09.040Z,6.50
2018-11-14T05:13:13.304Z,7.47
2018-11-14T05:17:17.641Z,7.55
2018-11-14T05:21:21.846Z,8.25
2018-11-14T05:25:26.780Z,7.87
2018-11-14T05:29:30.982Z,8.30
2018-11-14T05:33:35.241Z,9.20
2018-11-14T05:37:39.882Z,9.25
2018-11-14T05:41:44.594Z,7.83
2018-11-14T05:45:49.038Z,9.77
2018-11-14T05:49:53.221Z,8.50
2018-11-14T05:53:57.397Z,7.20
2018-11-14T05:58:01.691Z,8.10
2018-11-14T06:02:05.931Z,7.73
2018-11-14T06:06:10.645Z,6.33
2018-11-14T06:10:14.894Z,7.08
2018-11-14T06:14:18.998Z,7.65
2018-11-14T06:18:23.142Z,10.40
2018-11-14T06:22:27.442Z,6.77
2018-11-14T06:26:31.618Z,7.67
2018-11-14T06:30:37.020Z,7.40
2018-11-14T06:34:41.285Z,8.87
2018-11-14T06:38:46.088Z,6.23
2018-11-14T06:42:50.433Z,6.93
2018-11-14T06:46:55.295Z,6.42
2018-11-14T06:50:59.793Z,6.42
2018-11-14T06:55:06.418Z,6.22
2018-11-14T06:59:10.762Z,6.90
2018-11-14T07:03:15.077Z,7.70
2018-11-14T07:07:19.828Z,7.47
2018-11-14T07:11:24.202Z,11.60
2018-11-14T07:15:29.052Z,9.03
2018-11-14T07:19:33.400Z,10.07
2018-11-14T07:23:37.876Z,11.63
2018-11-14T07:27:42.286Z,13.60
2018-11-14T07:31:46.378Z,13.63
2018-11-14T07:35:50.564Z,14.47
2018-11-14T07:39:54.929Z,13.23
2018-11-14T07:43:59.328Z,13.67
2018-11-14T07:48:03.693Z,13.78
2018-11-14T07:52:07.855Z,14.43
2018-11-14T07:56:12.636Z,12.98
2018-11-14T08:00:17.969Z,14.97
2018-11-14T08:04:22.203Z,12.37
2018-11-14T08:08:26.413Z,13.43
2018-11-14T08:12:30.483Z,15.53
2018-11-14T08:16:34.520Z,13.80
2018-11-14T08:20:38.650Z,14.97
2018-11-14T08:24:42.681Z,12.87
2018-11-14T08:28:46.988Z,10.70
2018-11-14T08:32:51.345Z,11.10
2018-11-14T08:36:55.634Z,11.97
2018-11-14T08:40:59.958Z,10.90
2018-11-14T08:45:06.691Z,13.50
2018-11-14T08:49:11.377Z,11.57
2018-11-14T08:53:15.509Z,10.57
2018-11-14T08:57:20.219Z,9.25
2018-11-14T09:01:25.110Z,11.93
2018-11-14T09:05:30.373Z,11.83
2018-11-14T09:09:35.007Z,9.77
2018-11-14T09:13:39.386Z,8.40
2018-11-14T09:17:43.806Z,8.40
2018-11-14T09:21:48.374Z,7.73
2018-11-14T09:25:53.708Z,8.07
2018-11-14T09:29:58.213Z,6.78
2018-11-14T09:34:02.995Z,6.70
2018-11-14T09:38:07.325Z,6.65
2018-11-14T09:42:11.778Z,7.08
2018-11-14T09:46:15.918Z,6.22
2018-11-14T09:50:24.464Z,6.00
2018-11-14T09:54:29.228Z,5.70
2018-11-14T09:58:33.829Z,5.72
2018-11-14T10:02:38.251Z,5.55
2018-11-14T10:06:43.254Z,6.28
2018-11-14T10:10:47.480Z,6.63
2018-11-14T10:14:51.722Z,6.30
2018-11-14T10:18:56.018Z,6.45
2018-11-14T10:23:00.309Z,5.83
2018-11-14T10:27:05.304Z,5.25
2018-11-14T10:31:09.662Z,5.73
2018-11-14T10:35:14.280Z,6.17
2018-11-14T10:39:18.566Z,6.05
2018-11-14T10:43:22.828Z,5.10
2018-11-14T10:47:27.248Z,5.00
2018-11-14T10:51:31.564Z,5.60
2018-11-14T10:55:35.729Z,6.30
2018-11-14T10:59:40.416Z,5.33
2018-11-14T11:04:49.544Z,5.50
2018-11-14T11:08:59.047Z,5.47
2018-11-14T11:14:12.534Z,5.40
2018-11-14T11:18:17.743Z,5.37
2018-11-14T11:22:22.023Z,5.53
2018-11-14T11:26:26.588Z,5.30
2018-11-14T11:30:31.262Z,5.28
2018-11-14T11:34:35.789Z,5.30
2018-11-14T11:38:40.045Z,5.43
2018-11-14T11:42:44.621Z,5.53
2018-11-14T11:46:48.883Z,5.27
2018-11-14T11:50:53.592Z,5.58
2018-11-14T11:54:58.703Z,5.30
2018-11-14T11:59:02.792Z,4.90
2018-11-14T12:03:07.768Z,5.07
2018-11-14T12:07:12.044Z,4.80
2018-11-14T12:11:16.355Z,5.08
2018-11-14T12:15:20.947Z,5.33
2018-11-14T12:19:25.284Z,5.05
2018-11-14T12:23:30.369Z,4.85
2018-11-14T12:27:35.307Z,4.83
2018-11-14T12:31:39.748Z,5.47
2018-11-14T12:35:44.919Z,5.27
2018-11-14T12:39:49.979Z,4.77
2018-11-14T12:43:54.672Z,5.70
2018-11-14T12:47:58.943Z,4.60
2018-11-14T12:52:03.992Z,5.17
2018-11-14T12:56:08.569Z,5.23
2018-11-14T13:00:14.537Z,4.87
2018-11-14T13:04:19.178Z,5.28
2018-11-14T13:08:23.443Z,4.43
2018-11-14T13:12:27.981Z,4.92
2018-11-14T13:16:32.273Z,4.35
2018-11-14T13:20:36.663Z,4.53
2018-11-14T13:24:40.879Z,4.60
2018-11-14T13:28:45.315Z,4.70
2018-11-14T13:32:50.481Z,5.10
2018-11-14T13:36:55.070Z,5.37
2018-11-14T13:40:59.416Z,5.10
2018-11-14T13:45:03.523Z,4.80
2018-11-14T13:49:08.046Z,4.30
2018-11-14T13:53:11.906Z,4.93
2018-11-14T13:57:15.899Z,5.63
2018-11-14T14:01:19.968Z,5.45
2018-11-14T14:05:25.032Z,6.05
2018-11-14T14:09:29.090Z,5.75
2018-11-14T14:13:33.520Z,5.73
2018-11-14T14:17:37.876Z,5.83
2018-11-14T14:21:42.257Z,5.67
2018-11-14T14:25:46.209Z,6.37
2018-11-14T14:29:50.243Z,6.53
2018-11-14T14:33:54.152Z,5.93
2018-11-14T14:37:58.136Z,6.57
2018-11-14T14:42:02.320Z,6.10
2018-11-14T14:46:06.841Z,6.07
2018-11-14T14:50:13.773Z,6.40
2018-11-14T14:54:17.869Z,6.03
2018-11-14T14:58:21.881Z,6.40
2018-11-14T15:02:25.898Z,7.10
2018-11-14T15:06:29.949Z,7.30
2018-11-14T15:10:34.078Z,8.13
2018-11-14T15:14:38.137Z,7.10
2018-11-14T15:18:42.240Z,6.60
2018-11-14T15:22:46.411Z,6.30
2018-11-14T15:26:50.428Z,6.40
2018-11-14T15:30:54.679Z,6.53
2018-11-14T15:34:58.823Z,6.20
2018-11-14T15:39:03.006Z,7.07
2018-11-14T15:43:07.233Z,5.95
2018-11-14T15:47:11.275Z,7.00
2018-11-14T15:51:15.634Z,6.97
2018-11-14T15:55:20.583Z,6.20
2018-11-14T15:59:24.768Z,6.33
2018-11-14T16:03:28.823Z,6.40
2018-11-14T16:07:32.969Z,6.47
2018-11-14T16:11:37.708Z,7.07
2018-11-14T16:15:41.881Z,7.17
2018-11-14T16:19:45.881Z,7.40
2018-11-14T16:23:50.197Z,8.10
2018-11-14T16:27:55.677Z,7.47
2018-11-14T16:31:59.860Z,6.80
2018-11-14T16:36:04.188Z,6.70
2018-11-14T16:40:10.314Z,6.83
2018-11-14T16:44:14.716Z,7.23
2018-11-14T16:48:19.986Z,7.12
2018-11-14T16:52:24.311Z,7.70
2018-11-14T16:56:28.414Z,8.30
2018-11-14T17:00:32.643Z,8.90
2018-11-14T17:04:36.888Z,8.20
2018-11-14T17:08:40.851Z,8.60
2018-11-14T17:12:46.173Z,9.20
2018-11-14T17:16:50.854Z,9.47
2018-11-14T17:20:54.845Z,9.73
2018-11-14T17:24:58.757Z,8.40
2018-11-14T17:29:04.234Z,9.67
2018-11-14T17:33:08.207Z,10.78
2018-11-14T17:37:12.516Z,9.58
2018-11-14T17:41:16.685Z,10.55
2018-11-14T17:45:24.403Z,11.28
2018-11-14T17:49:28.468Z,11.00
2018-11-14T17:53:32.490Z,11.03
2018-11-14T17:57:37.070Z,12.00
2018-11-14T18:01:43.378Z,11.37
2018-11-14T18:05:48.465Z,13.27
2018-11-14T18:09:52.857Z,12.40
2018-11-14T18:13:57.135Z,11.80
2018-11-14T18:18:01.611Z,14.03
2018-11-14T18:22:06.113Z,13.47
2018-11-14T18:26:10.144Z,12.73
2018-11-14T18:30:17.381Z,14.50
2018-11-14T18:34:21.434Z,12.93
2018-11-14T18:38:26.409Z,16.27
2018-11-14T18:42:30.523Z,17.83
2018-11-14T18:46:34.486Z,15.47
2018-11-14T18:50:38.812Z,14.93
2018-11-14T18:54:43.229Z,12.88
2018-11-14T18:58:47.330Z,17.23
2018-11-14T19:02:51.742Z,17.10
2018-11-14T19:06:55.802Z,13.77
2018-11-14T19:11:00.232Z,15.87
2018-11-14T19:15:06.503Z,18.27
2018-11-14T19:19:10.702Z,15.85
2018-11-14T19:23:14.552Z,15.50
2018-11-14T19:27:18.650Z,18.90
2018-11-14T19:31:22.904Z,20.00
2018-11-14T19:35:26.983Z,17.73
2018-11-14T19:39:31.331Z,17.93
2018-11-14T19:43:35.493Z,19.50
2018-11-14T19:47:40.007Z,17.03
2018-11-14T19:51:44.013Z,13.83
2018-11-14T19:55:48.077Z,18.07
2018-11-14T19:59:52.063Z,22.00
2018-11-14T20:03:56.110Z,19.23
2018-11-14T20:08:00.164Z,19.73
2018-11-14T20:12:04.980Z,20.77
2018-11-14T20:16:09.016Z,20.37
2018-11-14T20:20:15.523Z,19.67
2018-11-14T20:24:19.725Z,20.43
2018-11-14T20:28:23.742Z,19.93
2018-11-14T20:32:27.881Z,19.17
2018-11-14T20:36:31.920Z,22.57
2018-11-14T20:40:38.259Z,17.30
2018-11-14T20:44:42.344Z,20.90
2018-11-14T20:48:47.186Z,22.60
2018-11-14T20:52:52.818Z,21.60
2018-11-14T20:56:57.019Z,21.90
2018-11-14T21:01:01.045Z,21.13
2018-11-14T21:05:06.380Z,22.10
2018-11-14T21:09:11.082Z,23.97
2018-11-14T21:13:15.066Z,21.90
2018-11-14T21:17:19.060Z,20.93
2018-11-14T21:21:23.144Z,18.37
2018-11-14T21:25:27.483Z,20.80
2018-11-14T21:29:31.488Z,22.17
2018-11-14T21:33:35.459Z,19.20
2018-11-14T21:37:39.553Z,20.83
2018-11-14T21:41:44.312Z,22.10
2018-11-14T21:45:48.375Z,22.20
2018-11-14T21:49:52.469Z,22.87
2018-11-14T21:53:56.461Z,20.43
2018-11-14T21:58:00.457Z,20.50
2018-11-14T22:02:05.325Z,17.42
2018-11-14T22:06:09.464Z,18.83
2018-11-14T22:10:17.146Z,19.85
2018-11-14T22:14:21.224Z,20.10
2018-11-14T22:18:25.167Z,19.10
2018-11-14T22:22:29.185Z,17.30
2018-11-14T22:26:33.612Z,14.90
2018-11-14T22:30:37.831Z,15.10
2018-11-14T22:34:42.038Z,14.87
2018-11-14T22:38:46.657Z,14.30
2018-11-14T22:42:51.079Z,14.73
2018-11-14T22:46:55.663Z,12.47
2018-11-14T22:50:59.694Z,12.50
2018-11-14T22:55:05.515Z,11.93
2018-11-14T22:59:09.545Z,12.43
2018-11-14T23:03:15.720Z,15.48
2018-11-14T23:07:19.853Z,14.58
2018-11-14T23:11:24.378Z,14.30
2018-11-14T23:15:28.819Z,16.03
2018-11-14T23:19:33.007Z,15.60
2018-11-14T23:23:37.236Z,14.80
2018-11-14T23:27:43.075Z,13.50
2018-11-14T23:31:47.293Z,14.93
2018-11-14T23:35:51.422Z,14.37
2018-11-14T23:39:55.529Z,12.03
2018-11-14T23:44:04.124Z,12.80
2018-11-14T23:48:08.384Z,14.63
2018-11-14T23:52:13.077Z,13.70
2018-11-14T23:56:17.173Z,13.45
